sensor_id;sensor_type;location;lat;lon;timestamp;temperature;humidity
8711;DHT22;4392;47.400;8.062;2023-04-03T00:01:24;10.20;99.90
8711;DHT22;4392;47.400;8.062;2023-04-03T00:03:49;10.40;99.90
8711;DHT22;4392;47.400;8.062;2023-04-03T00:06:17;10.20;99.90
8711;DHT22;4392;47.400;8.062;2023-04-03T00:08:45;10.30;99.90
8711;DHT22;4392;47.400;8.062;2023-04-03T00:11:19;10.20;99.90
8711;DHT22;4392;47.400;8.062;2023-04-03T00:13:46;10.30;99.90
8711;DHT22;4392;47.400;8.062;2023-04-03T00:16:15;10.00;99.90
8711;DHT22;4392;47.400;8.062;2023-04-03T00:18:41;9.30;99.90
8711;DHT22;4392;47.400;8.062;2023-04-03T00:21:10;9.60;99.90
8711;DHT22;4392;47.400;8.062;2023-04-03T00:23:39;9.20;99.90
8711;DHT22;4392;47.400;8.062;2023-04-03T00:26:05;9.10;99.90
8711;DHT22;4392;47.400;8.062;2023-04-03T00:28:31;8.80;99.90
8711;DHT22;4392;47.400;8.062;2023-04-03T00:30:56;9.00;99.90
8711;DHT22;4392;47.400;8.062;2023-04-03T00:33:22;9.30;99.90
8711;DHT22;4392;47.400;8.062;2023-04-03T00:35:53;8.60;99.90
8711;DHT22;4392;47.400;8.062;2023-04-03T00:38:19;9.10;99.90
8711;DHT22;4392;47.400;8.062;2023-04-03T00:40:46;9.30;99.90
8711;DHT22;4392;47.400;8.062;2023-04-03T00:43:20;9.30;99.90
8711;DHT22;4392;47.400;8.062;2023-04-03T00:45:53;9.60;99.90
8711;DHT22;4392;47.400;8.062;2023-04-03T00:48:28;9.70;99.90
8711;DHT22;4392;47.400;8.062;2023-04-03T00:50:56;9.50;99.90
8711;DHT22;4392;47.400;8.062;2023-04-03T00:53:26;9.40;99.90
8711;DHT22;4392;47.400;8.062;2023-04-03T00:55:56;8.60;99.90
8711;DHT22;4392;47.400;8.062;2023-04-03T00:58:33;8.60;99.90
8711;DHT22;4392;47.400;8.062;2023-04-03T01:01:01;8.40;99.90
8711;DHT22;4392;47.400;8.062;2023-04-03T01:03:31;8.60;99.90
8711;DHT22;4392;47.400;8.062;2023-04-03T01:05:57;9.00;99.90
8711;DHT22;4392;47.400;8.062;2023-04-03T01:08:23;8.80;99.90
8711;DHT22;4392;47.400;8.062;2023-04-03T01:10:49;8.90;99.90
8711;DHT22;4392;47.400;8.062;2023-04-03T01:13:34;8.90;99.90
8711;DHT22;4392;47.400;8.062;2023-04-03T01:16:07;9.10;99.90
8711;DHT22;4392;47.400;8.062;2023-04-03T01:18:34;9.30;99.90
8711;DHT22;4392;47.400;8.062;2023-04-03T01:21:11;9.20;99.90
8711;DHT22;4392;47.400;8.062;2023-04-03T01:23:53;9.20;99.90
8711;DHT22;4392;47.400;8.062;2023-04-03T01:26:21;9.20;99.90
8711;DHT22;4392;47.400;8.062;2023-04-03T01:28:47;9.20;99.90
8711;DHT22;4392;47.400;8.062;2023-04-03T01:31:39;8.70;99.90
8711;DHT22;4392;47.400;8.062;2023-04-03T01:34:05;8.60;99.90
8711;DHT22;4392;47.400;8.062;2023-04-03T01:36:31;9.00;99.90
8711;DHT22;4392;47.400;8.062;2023-04-03T01:38:59;8.90;99.90
8711;DHT22;4392;47.400;8.062;2023-04-03T01:41:25;9.10;99.90
8711;DHT22;4392;47.400;8.062;2023-04-03T01:43:56;9.00;99.90
8711;DHT22;4392;47.400;8.062;2023-04-03T01:46:22;8.60;99.90
8711;DHT22;4392;47.400;8.062;2023-04-03T01:48:48;8.40;99.90
8711;DHT22;4392;47.400;8.062;2023-04-03T01:51:18;8.20;99.90
8711;DHT22;4392;47.400;8.062;2023-04-03T01:53:44;8.70;99.90
8711;DHT22;4392;47.400;8.062;2023-04-03T01:56:12;8.20;99.90
8711;DHT22;4392;47.400;8.062;2023-04-03T01:58:38;8.50;99.90
8711;DHT22;4392;47.400;8.062;2023-04-03T02:01:09;8.40;99.90
8711;DHT22;4392;47.400;8.062;2023-04-03T02:03:35;8.10;99.90
8711;DHT22;4392;47.400;8.062;2023-04-03T02:06:01;8.30;99.90
8711;DHT22;4392;47.400;8.062;2023-04-03T02:08:26;8.40;99.90
8711;DHT22;4392;47.400;8.062;2023-04-03T02:10:57;8.50;99.90
8711;DHT22;4392;47.400;8.062;2023-04-03T02:13:23;8.50;99.90
8711;DHT22;4392;47.400;8.062;2023-04-03T02:15:48;8.50;99.90
8711;DHT22;4392;47.400;8.062;2023-04-03T02:18:15;8.70;99.90
8711;DHT22;4392;47.400;8.062;2023-04-03T02:20:44;8.90;99.90
8711;DHT22;4392;47.400;8.062;2023-04-03T02:23:11;9.00;99.90
8711;DHT22;4392;47.400;8.062;2023-04-03T02:25:37;8.90;99.90
8711;DHT22;4392;47.400;8.062;2023-04-03T02:28:02;8.70;99.90
8711;DHT22;4392;47.400;8.062;2023-04-03T02:30:28;8.70;99.90
8711;DHT22;4392;47.400;8.062;2023-04-03T02:32:58;8.80;99.90
8711;DHT22;4392;47.400;8.062;2023-04-03T02:35:24;8.90;99.90
8711;DHT22;4392;47.400;8.062;2023-04-03T02:37:52;9.00;99.90
8711;DHT22;4392;47.400;8.062;2023-04-03T02:40:17;9.00;99.90
8711;DHT22;4392;47.400;8.062;2023-04-03T02:42:49;9.10;99.90
8711;DHT22;4392;47.400;8.062;2023-04-03T02:45:17;9.00;99.90
8711;DHT22;4392;47.400;8.062;2023-04-03T02:47:49;9.00;99.90
8711;DHT22;4392;47.400;8.062;2023-04-03T02:50:15;9.00;99.90
8711;DHT22;4392;47.400;8.062;2023-04-03T02:52:40;9.10;99.90
8711;DHT22;4392;47.400;8.062;2023-04-03T02:55:07;9.10;99.90
8711;DHT22;4392;47.400;8.062;2023-04-03T02:57:35;9.10;99.90
8711;DHT22;4392;47.400;8.062;2023-04-03T03:00:01;9.10;99.90
8711;DHT22;4392;47.400;8.062;2023-04-03T03:02:28;9.00;99.90
8711;DHT22;4392;47.400;8.062;2023-04-03T03:04:54;8.90;99.90
8711;DHT22;4392;47.400;8.062;2023-04-03T03:07:19;8.80;99.90
8711;DHT22;4392;47.400;8.062;2023-04-03T03:09:48;8.90;99.90
8711;DHT22;4392;47.400;8.062;2023-04-03T03:12:14;8.80;99.90
8711;DHT22;4392;47.400;8.062;2023-04-03T03:14:40;8.90;99.90
8711;DHT22;4392;47.400;8.062;2023-04-03T03:17:14;8.90;99.90
8711;DHT22;4392;47.400;8.062;2023-04-03T03:19:40;8.80;99.90
8711;DHT22;4392;47.400;8.062;2023-04-03T03:22:08;8.90;99.90
8711;DHT22;4392;47.400;8.062;2023-04-03T03:24:42;8.80;99.90
8711;DHT22;4392;47.400;8.062;2023-04-03T03:27:11;8.80;99.90
8711;DHT22;4392;47.400;8.062;2023-04-03T03:29:37;8.70;99.90
8711;DHT22;4392;47.400;8.062;2023-04-03T03:32:03;8.60;99.90
8711;DHT22;4392;47.400;8.062;2023-04-03T03:34:34;8.60;99.90
8711;DHT22;4392;47.400;8.062;2023-04-03T03:37:00;8.60;99.90
8711;DHT22;4392;47.400;8.062;2023-04-03T03:39:28;8.80;99.90
8711;DHT22;4392;47.400;8.062;2023-04-03T03:41:54;8.80;99.90
8711;DHT22;4392;47.400;8.062;2023-04-03T03:44:20;8.80;99.90
8711;DHT22;4392;47.400;8.062;2023-04-03T03:46:46;8.60;99.90
8711;DHT22;4392;47.400;8.062;2023-04-03T03:49:12;8.20;99.90
8711;DHT22;4392;47.400;8.062;2023-04-03T03:51:41;8.00;99.90
8711;DHT22;4392;47.400;8.062;2023-04-03T03:54:07;8.30;99.90
8711;DHT22;4392;47.400;8.062;2023-04-03T03:56:33;8.50;99.90
8711;DHT22;4392;47.400;8.062;2023-04-03T04:01:31;8.10;99.90
8711;DHT22;4392;47.400;8.062;2023-04-03T04:03:57;8.20;99.90
8711;DHT22;4392;47.400;8.062;2023-04-03T04:06:23;8.30;99.90
8711;DHT22;4392;47.400;8.062;2023-04-03T04:08:55;8.40;99.90
8711;DHT22;4392;47.400;8.062;2023-04-03T04:11:20;8.20;99.90
8711;DHT22;4392;47.400;8.062;2023-04-03T04:13:47;8.20;99.90
8711;DHT22;4392;47.400;8.062;2023-04-03T04:16:13;8.30;99.90
8711;DHT22;4392;47.400;8.062;2023-04-03T04:18:38;7.90;99.90
8711;DHT22;4392;47.400;8.062;2023-04-03T04:21:07;8.10;99.90
8711;DHT22;4392;47.400;8.062;2023-04-03T04:23:33;8.00;99.90
8711;DHT22;4392;47.400;8.062;2023-04-03T04:25:59;8.20;99.90
8711;DHT22;4392;47.400;8.062;2023-04-03T04:28:24;8.30;99.90
8711;DHT22;4392;47.400;8.062;2023-04-03T04:30:50;8.30;99.90
8711;DHT22;4392;47.400;8.062;2023-04-03T04:33:19;8.30;99.90
8711;DHT22;4392;47.400;8.062;2023-04-03T04:35:49;8.30;99.90
8711;DHT22;4392;47.400;8.062;2023-04-03T04:38:15;8.20;99.90
8711;DHT22;4392;47.400;8.062;2023-04-03T04:40:44;8.30;99.90
8711;DHT22;4392;47.400;8.062;2023-04-03T04:43:10;8.30;99.90
8711;DHT22;4392;47.400;8.062;2023-04-03T04:45:40;8.30;99.90
8711;DHT22;4392;47.400;8.062;2023-04-03T04:48:10;8.30;99.90
8711;DHT22;4392;47.400;8.062;2023-04-03T04:50:36;7.70;99.90
8711;DHT22;4392;47.400;8.062;2023-04-03T04:53:01;8.00;99.90
8711;DHT22;4392;47.400;8.062;2023-04-03T04:55:27;7.90;99.90
8711;DHT22;4392;47.400;8.062;2023-04-03T04:57:53;8.00;99.90
8711;DHT22;4392;47.400;8.062;2023-04-03T05:00:19;7.60;99.90
8711;DHT22;4392;47.400;8.062;2023-04-03T05:02:45;7.90;99.90
8711;DHT22;4392;47.400;8.062;2023-04-03T05:05:11;7.50;99.90
8711;DHT22;4392;47.400;8.062;2023-04-03T05:07:37;7.80;99.90
8711;DHT22;4392;47.400;8.062;2023-04-03T05:10:03;8.00;99.90
8711;DHT22;4392;47.400;8.062;2023-04-03T05:12:29;8.00;99.90
8711;DHT22;4392;47.400;8.062;2023-04-03T05:15:01;8.20;99.90
8711;DHT22;4392;47.400;8.062;2023-04-03T05:17:27;8.20;99.90
8711;DHT22;4392;47.400;8.062;2023-04-03T05:19:55;7.90;99.90
8711;DHT22;4392;47.400;8.062;2023-04-03T05:22:28;8.00;99.90
8711;DHT22;4392;47.400;8.062;2023-04-03T05:24:54;8.10;99.90
8711;DHT22;4392;47.400;8.062;2023-04-03T05:27:24;8.20;99.90
8711;DHT22;4392;47.400;8.062;2023-04-03T05:29:52;8.10;99.90
8711;DHT22;4392;47.400;8.062;2023-04-03T05:32:18;8.20;99.90
8711;DHT22;4392;47.400;8.062;2023-04-03T05:34:46;8.20;99.90
8711;DHT22;4392;47.400;8.062;2023-04-03T05:37:13;8.20;99.70
8711;DHT22;4392;47.400;8.062;2023-04-03T05:39:39;8.00;99.20
8711;DHT22;4392;47.400;8.062;2023-04-03T05:42:10;8.00;99.70
8711;DHT22;4392;47.400;8.062;2023-04-03T05:44:37;8.00;99.80
8711;DHT22;4392;47.400;8.062;2023-04-03T05:47:10;7.80;98.30
8711;DHT22;4392;47.400;8.062;2023-04-03T05:49:39;7.80;99.20
8711;DHT22;4392;47.400;8.062;2023-04-03T05:52:16;7.90;99.40
8711;DHT22;4392;47.400;8.062;2023-04-03T05:54:43;8.10;98.80
8711;DHT22;4392;47.400;8.062;2023-04-03T05:57:09;8.00;98.10
8711;DHT22;4392;47.400;8.062;2023-04-03T05:59:35;8.10;98.50
8711;DHT22;4392;47.400;8.062;2023-04-03T06:02:05;8.10;96.80
8711;DHT22;4392;47.400;8.062;2023-04-03T06:04:36;7.90;95.60
8711;DHT22;4392;47.400;8.062;2023-04-03T06:07:06;8.00;95.20
8711;DHT22;4392;47.400;8.062;2023-04-03T06:09:34;8.00;95.10
8711;DHT22;4392;47.400;8.062;2023-04-03T06:12:00;8.10;95.20
8711;DHT22;4392;47.400;8.062;2023-04-03T06:14:27;7.90;94.30
8711;DHT22;4392;47.400;8.062;2023-04-03T06:16:56;7.60;95.00
8711;DHT22;4392;47.400;8.062;2023-04-03T06:19:22;7.80;94.90
8711;DHT22;4392;47.400;8.062;2023-04-03T06:21:47;6.90;94.70
8711;DHT22;4392;47.400;8.062;2023-04-03T06:24:19;7.40;95.90
8711;DHT22;4392;47.400;8.062;2023-04-03T06:26:47;6.90;95.10
8711;DHT22;4392;47.400;8.062;2023-04-03T06:29:13;7.30;94.80
8711;DHT22;4392;47.400;8.062;2023-04-03T06:31:44;7.50;94.10
8711;DHT22;4392;47.400;8.062;2023-04-03T06:34:12;7.20;93.10
8711;DHT22;4392;47.400;8.062;2023-04-03T06:36:39;6.70;93.00
8711;DHT22;4392;47.400;8.062;2023-04-03T06:39:08;6.70;92.10
8711;DHT22;4392;47.400;8.062;2023-04-03T06:41:34;7.10;92.90
8711;DHT22;4392;47.400;8.062;2023-04-03T06:44:03;7.50;91.30
8711;DHT22;4392;47.400;8.062;2023-04-03T06:46:28;7.60;90.70
8711;DHT22;4392;47.400;8.062;2023-04-03T06:48:54;7.70;89.80
8711;DHT22;4392;47.400;8.062;2023-04-03T06:51:24;7.70;89.10
8711;DHT22;4392;47.400;8.062;2023-04-03T06:54:06;7.70;89.20
8711;DHT22;4392;47.400;8.062;2023-04-03T06:56:33;7.80;87.10
8711;DHT22;4392;47.400;8.062;2023-04-03T06:58:59;7.00;83.60
8711;DHT22;4392;47.400;8.062;2023-04-03T07:01:31;7.40;87.00
8711;DHT22;4392;47.400;8.062;2023-04-03T07:03:57;7.20;86.30
8711;DHT22;4392;47.400;8.062;2023-04-03T07:06:31;7.20;85.60
8711;DHT22;4392;47.400;8.062;2023-04-03T07:09:04;6.40;84.50
8711;DHT22;4392;47.400;8.062;2023-04-03T07:11:30;6.10;84.20
8711;DHT22;4392;47.400;8.062;2023-04-03T07:13:57;6.40;86.80
8711;DHT22;4392;47.400;8.062;2023-04-03T07:16:23;6.60;86.90
8711;DHT22;4392;47.400;8.062;2023-04-03T07:18:48;6.50;83.10
8711;DHT22;4392;47.400;8.062;2023-04-03T07:21:18;6.90;85.70
8711;DHT22;4392;47.400;8.062;2023-04-03T07:23:44;7.30;84.20
8711;DHT22;4392;47.400;8.062;2023-04-03T07:26:10;7.50;82.90
8711;DHT22;4392;47.400;8.062;2023-04-03T07:28:36;7.30;81.90
8711;DHT22;4392;47.400;8.062;2023-04-03T07:31:11;7.60;81.50
8711;DHT22;4392;47.400;8.062;2023-04-03T07:33:39;7.70;79.80
8711;DHT22;4392;47.400;8.062;2023-04-03T07:36:15;7.80;78.40
8711;DHT22;4392;47.400;8.062;2023-04-03T07:38:45;7.90;77.60
8711;DHT22;4392;47.400;8.062;2023-04-03T07:41:15;7.80;77.60
8711;DHT22;4392;47.400;8.062;2023-04-03T07:43:48;7.70;76.20
8711;DHT22;4392;47.400;8.062;2023-04-03T07:46:19;7.40;77.30
8711;DHT22;4392;47.400;8.062;2023-04-03T07:48:50;7.70;78.20
8711;DHT22;4392;47.400;8.062;2023-04-03T07:51:15;7.30;78.40
8711;DHT22;4392;47.400;8.062;2023-04-03T07:53:41;7.70;76.40
8711;DHT22;4392;47.400;8.062;2023-04-03T07:56:10;7.30;76.10
8711;DHT22;4392;47.400;8.062;2023-04-03T07:58:36;7.60;78.20
8711;DHT22;4392;47.400;8.062;2023-04-03T08:01:04;8.00;76.70
8711;DHT22;4392;47.400;8.062;2023-04-03T08:03:34;8.30;75.70
8711;DHT22;4392;47.400;8.062;2023-04-03T08:06:04;8.30;75.30
8711;DHT22;4392;47.400;8.062;2023-04-03T08:08:33;8.50;74.30
8711;DHT22;4392;47.400;8.062;2023-04-03T08:11:00;8.30;72.50
8711;DHT22;4392;47.400;8.062;2023-04-03T08:13:29;8.20;72.50
8711;DHT22;4392;47.400;8.062;2023-04-03T08:15:57;8.10;73.20
8711;DHT22;4392;47.400;8.062;2023-04-03T08:18:24;8.10;72.20
8711;DHT22;4392;47.400;8.062;2023-04-03T08:20:51;7.90;71.20
8711;DHT22;4392;47.400;8.062;2023-04-03T08:23:18;7.70;70.50
8711;DHT22;4392;47.400;8.062;2023-04-03T08:25:47;6.50;72.60
8711;DHT22;4392;47.400;8.062;2023-04-03T08:28:14;7.20;74.10
8711;DHT22;4392;47.400;8.062;2023-04-03T08:30:40;6.90;73.10
8711;DHT22;4392;47.400;8.062;2023-04-03T08:33:13;7.20;74.40
8711;DHT22;4392;47.400;8.062;2023-04-03T08:35:40;6.60;73.40
8711;DHT22;4392;47.400;8.062;2023-04-03T08:38:09;7.20;75.90
8711;DHT22;4392;47.400;8.062;2023-04-03T08:40:38;7.50;72.60
8711;DHT22;4392;47.400;8.062;2023-04-03T08:43:12;7.50;74.40
8711;DHT22;4392;47.400;8.062;2023-04-03T08:45:46;6.90;74.20
8711;DHT22;4392;47.400;8.062;2023-04-03T08:48:20;6.80;73.20
8711;DHT22;4392;47.400;8.062;2023-04-03T08:50:50;7.20;74.40
8711;DHT22;4392;47.400;8.062;2023-04-03T08:53:32;7.80;73.60
8711;DHT22;4392;47.400;8.062;2023-04-03T08:56:09;7.70;71.60
8711;DHT22;4392;47.400;8.062;2023-04-03T08:58:48;7.10;71.30
8711;DHT22;4392;47.400;8.062;2023-04-03T09:01:39;6.70;73.80
8711;DHT22;4392;47.400;8.062;2023-04-03T09:04:16;7.10;76.40
8711;DHT22;4392;47.400;8.062;2023-04-03T09:06:50;7.20;74.30
8711;DHT22;4392;47.400;8.062;2023-04-03T09:09:38;7.20;73.80
8711;DHT22;4392;47.400;8.062;2023-04-03T09:12:25;7.50;75.50
8711;DHT22;4392;47.400;8.062;2023-04-03T09:20:49;6.70;76.70
8711;DHT22;4392;47.400;8.062;2023-04-03T09:23:30;6.80;75.60
8711;DHT22;4392;47.400;8.062;2023-04-03T09:26:07;6.90;76.40
8711;DHT22;4392;47.400;8.062;2023-04-03T09:28:39;7.00;76.40
8711;DHT22;4392;47.400;8.062;2023-04-03T09:31:26;7.40;77.50
8711;DHT22;4392;47.400;8.062;2023-04-03T09:34:25;7.10;74.00
8711;DHT22;4392;47.400;8.062;2023-04-03T09:36:54;7.10;74.20
8711;DHT22;4392;47.400;8.062;2023-04-03T09:39:28;7.00;75.00
8711;DHT22;4392;47.400;8.062;2023-04-03T09:42:05;7.40;75.50
8711;DHT22;4392;47.400;8.062;2023-04-03T09:44:36;7.40;74.30
8711;DHT22;4392;47.400;8.062;2023-04-03T09:47:36;7.00;74.70
8711;DHT22;4392;47.400;8.062;2023-04-03T09:50:20;7.40;75.10
8711;DHT22;4392;47.400;8.062;2023-04-03T09:52:48;7.10;74.70
8711;DHT22;4392;47.400;8.062;2023-04-03T09:55:23;7.30;75.60
8711;DHT22;4392;47.400;8.062;2023-04-03T09:58:01;7.90;75.00
8711;DHT22;4392;47.400;8.062;2023-04-03T10:00:53;8.30;73.80
8711;DHT22;4392;47.400;8.062;2023-04-03T10:03:43;7.90;74.00
8711;DHT22;4392;47.400;8.062;2023-04-03T10:06:23;7.60;73.30
8711;DHT22;4392;47.400;8.062;2023-04-03T10:09:04;8.00;74.50
8711;DHT22;4392;47.400;8.062;2023-04-03T10:11:30;8.30;73.50
8711;DHT22;4392;47.400;8.062;2023-04-03T10:14:03;8.30;71.20
8711;DHT22;4392;47.400;8.062;2023-04-03T10:16:41;8.50;72.20
8711;DHT22;4392;47.400;8.062;2023-04-03T10:27:59;9.00;71.20
8711;DHT22;4392;47.400;8.062;2023-04-03T10:54:38;8.10;69.90
8711;DHT22;4392;47.400;8.062;2023-04-03T10:57:08;7.90;71.10
8711;DHT22;4392;47.400;8.062;2023-04-03T11:00:03;8.20;71.40
8711;DHT22;4392;47.400;8.062;2023-04-03T11:02:39;8.50;70.60
8711;DHT22;4392;47.400;8.062;2023-04-03T11:05:31;8.20;69.70
8711;DHT22;4392;47.400;8.062;2023-04-03T11:08:10;8.50;69.80
8711;DHT22;4392;47.400;8.062;2023-04-03T11:10:43;8.90;70.20
8711;DHT22;4392;47.400;8.062;2023-04-03T11:15:38;9.20;68.20
8711;DHT22;4392;47.400;8.062;2023-04-03T11:18:12;9.10;69.50
8711;DHT22;4392;47.400;8.062;2023-04-03T11:20:44;9.20;94.10
8711;DHT22;4392;47.400;8.062;2023-04-03T11:23:26;10.40;92.50
8711;DHT22;4392;47.400;8.062;2023-04-03T11:26:04;9.70;75.20
8711;DHT22;4392;47.400;8.062;2023-04-03T11:28:32;9.70;72.50
8711;DHT22;4392;47.400;8.062;2023-04-03T11:36:44;8.90;72.50
8711;DHT22;4392;47.400;8.062;2023-04-03T11:39:35;9.30;71.60
8711;DHT22;4392;47.400;8.062;2023-04-03T11:42:34;9.50;70.00
8711;DHT22;4392;47.400;8.062;2023-04-03T11:47:53;9.40;69.50
8711;DHT22;4392;47.400;8.062;2023-04-03T11:58:20;8.60;70.50
8711;DHT22;4392;47.400;8.062;2023-04-03T12:00:55;8.80;72.10
8711;DHT22;4392;47.400;8.062;2023-04-03T12:14:04;9.10;97.70
8711;DHT22;4392;47.400;8.062;2023-04-03T12:16:47;10.70;92.10
8711;DHT22;4392;47.400;8.062;2023-04-03T12:24:37;9.90;73.90
8711;DHT22;4392;47.400;8.062;2023-04-03T12:27:33;9.00;70.70
8711;DHT22;4392;47.400;8.062;2023-04-03T12:41:36;9.70;73.30
8711;DHT22;4392;47.400;8.062;2023-04-03T12:46:49;9.50;70.60
8711;DHT22;4392;47.400;8.062;2023-04-03T12:49:38;9.10;72.70
8711;DHT22;4392;47.400;8.062;2023-04-03T12:52:45;9.50;71.50
8711;DHT22;4392;47.400;8.062;2023-04-03T12:55:19;9.60;71.70
8711;DHT22;4392;47.400;8.062;2023-04-03T12:57:46;9.30;72.50
8711;DHT22;4392;47.400;8.062;2023-04-03T13:02:50;9.50;72.20
8711;DHT22;4392;47.400;8.062;2023-04-03T13:05:18;9.60;72.50
8711;DHT22;4392;47.400;8.062;2023-04-03T13:08:04;9.80;72.30
8711;DHT22;4392;47.400;8.062;2023-04-03T13:10:31;9.40;72.30
8711;DHT22;4392;47.400;8.062;2023-04-03T13:13:13;9.50;72.50
8711;DHT22;4392;47.400;8.062;2023-04-03T13:15:44;9.70;71.10
8711;DHT22;4392;47.400;8.062;2023-04-03T13:18:41;9.70;71.20
8711;DHT22;4392;47.400;8.062;2023-04-03T13:21:21;9.70;71.90
8711;DHT22;4392;47.400;8.062;2023-04-03T13:23:54;9.50;71.60
8711;DHT22;4392;47.400;8.062;2023-04-03T13:26:26;9.70;71.20
8711;DHT22;4392;47.400;8.062;2023-04-03T13:28:56;9.90;70.70
8711;DHT22;4392;47.400;8.062;2023-04-03T13:31:29;9.90;68.60
8711;DHT22;4392;47.400;8.062;2023-04-03T13:34:02;9.90;70.60
8711;DHT22;4392;47.400;8.062;2023-04-03T13:36:39;10.90;99.90
8711;DHT22;4392;47.400;8.062;2023-04-03T13:41:46;9.80;73.30
8711;DHT22;4392;47.400;8.062;2023-04-03T13:46:48;9.00;74.70
8711;DHT22;4392;47.400;8.062;2023-04-03T13:51:54;9.40;74.10
8711;DHT22;4392;47.400;8.062;2023-04-03T13:54:34;9.10;75.10
8711;DHT22;4392;47.400;8.062;2023-04-03T13:57:21;9.10;74.60
8711;DHT22;4392;47.400;8.062;2023-04-03T13:59:47;9.10;75.70
8711;DHT22;4392;47.400;8.062;2023-04-03T14:02:32;9.40;74.80
8711;DHT22;4392;47.400;8.062;2023-04-03T14:04:59;9.60;72.80
8711;DHT22;4392;47.400;8.062;2023-04-03T14:07:30;9.70;73.10
8711;DHT22;4392;47.400;8.062;2023-04-03T14:09:59;9.60;72.90
8711;DHT22;4392;47.400;8.062;2023-04-03T14:12:33;9.60;72.80
8711;DHT22;4392;47.400;8.062;2023-04-03T14:15:24;9.50;73.40
8711;DHT22;4392;47.400;8.062;2023-04-03T14:17:53;9.60;73.20
8711;DHT22;4392;47.400;8.062;2023-04-03T14:20:23;9.50;74.10
8711;DHT22;4392;47.400;8.062;2023-04-03T14:22:53;9.60;73.40
8711;DHT22;4392;47.400;8.062;2023-04-03T14:25:22;9.60;72.10
8711;DHT22;4392;47.400;8.062;2023-04-03T14:27:53;9.60;72.00
8711;DHT22;4392;47.400;8.062;2023-04-03T14:30:26;9.50;71.30
8711;DHT22;4392;47.400;8.062;2023-04-03T14:32:53;9.50;71.60
8711;DHT22;4392;47.400;8.062;2023-04-03T14:35:22;9.30;71.30
8711;DHT22;4392;47.400;8.062;2023-04-03T14:37:55;9.40;71.90
8711;DHT22;4392;47.400;8.062;2023-04-03T14:40:25;9.40;72.20
8711;DHT22;4392;47.400;8.062;2023-04-03T14:42:55;9.50;72.00
8711;DHT22;4392;47.400;8.062;2023-04-03T14:45:22;9.40;72.30
8711;DHT22;4392;47.400;8.062;2023-04-03T14:47:53;8.60;73.00
8711;DHT22;4392;47.400;8.062;2023-04-03T14:50:23;8.90;74.10
8711;DHT22;4392;47.400;8.062;2023-04-03T14:52:57;9.20;73.70
8711;DHT22;4392;47.400;8.062;2023-04-03T14:55:24;9.40;72.20
8711;DHT22;4392;47.400;8.062;2023-04-03T14:57:54;9.50;70.90
8711;DHT22;4392;47.400;8.062;2023-04-03T15:00:21;9.30;69.60
8711;DHT22;4392;47.400;8.062;2023-04-03T15:02:48;8.80;70.90
8711;DHT22;4392;47.400;8.062;2023-04-03T15:05:14;9.20;72.00
8711;DHT22;4392;47.400;8.062;2023-04-03T15:07:47;9.30;70.90
8711;DHT22;4392;47.400;8.062;2023-04-03T15:12:43;9.50;71.40
8711;DHT22;4392;47.400;8.062;2023-04-03T15:15:09;9.50;69.80
8711;DHT22;4392;47.400;8.062;2023-04-03T15:17:36;9.30;70.00
8711;DHT22;4392;47.400;8.062;2023-04-03T15:20:15;9.40;69.30
8711;DHT22;4392;47.400;8.062;2023-04-03T15:22:49;9.20;68.60
8711;DHT22;4392;47.400;8.062;2023-04-03T15:25:15;9.30;68.70
8711;DHT22;4392;47.400;8.062;2023-04-03T15:27:47;9.30;67.70
8711;DHT22;4392;47.400;8.062;2023-04-03T15:30:17;9.30;67.80
8711;DHT22;4392;47.400;8.062;2023-04-03T15:32:49;9.30;67.50
8711;DHT22;4392;47.400;8.062;2023-04-03T15:35:16;9.40;66.80
8711;DHT22;4392;47.400;8.062;2023-04-03T15:37:42;9.50;67.30
8711;DHT22;4392;47.400;8.062;2023-04-03T15:40:12;9.50;67.10
8711;DHT22;4392;47.400;8.062;2023-04-03T15:42:38;9.50;67.00
8711;DHT22;4392;47.400;8.062;2023-04-03T15:45:12;9.20;66.70
8711;DHT22;4392;47.400;8.062;2023-04-03T15:47:38;9.20;67.70
8711;DHT22;4392;47.400;8.062;2023-04-03T15:50:04;8.70;67.00
8711;DHT22;4392;47.400;8.062;2023-04-03T15:52:37;8.60;68.10
8711;DHT22;4392;47.400;8.062;2023-04-03T15:55:04;8.90;67.90
8711;DHT22;4392;47.400;8.062;2023-04-03T15:57:30;8.90;67.20
8711;DHT22;4392;47.400;8.062;2023-04-03T15:59:59;8.80;68.80
8711;DHT22;4392;47.400;8.062;2023-04-03T16:02:25;9.00;68.20
8711;DHT22;4392;47.400;8.062;2023-04-03T16:04:54;9.00;67.30
8711;DHT22;4392;47.400;8.062;2023-04-03T16:07:23;9.10;68.00
8711;DHT22;4392;47.400;8.062;2023-04-03T16:09:49;9.20;67.60
8711;DHT22;4392;47.400;8.062;2023-04-03T16:12:15;8.80;66.40
8711;DHT22;4392;47.400;8.062;2023-04-03T16:14:40;9.00;67.40
8711;DHT22;4392;47.400;8.062;2023-04-03T16:17:06;8.60;66.10
8711;DHT22;4392;47.400;8.062;2023-04-03T16:19:38;8.40;67.50
8711;DHT22;4392;47.400;8.062;2023-04-03T16:22:10;8.30;65.90
8711;DHT22;4392;47.400;8.062;2023-04-03T16:24:35;8.20;67.20
8711;DHT22;4392;47.400;8.062;2023-04-03T16:27:03;8.30;66.80
8711;DHT22;4392;47.400;8.062;2023-04-03T16:29:42;8.40;67.20
8711;DHT22;4392;47.400;8.062;2023-04-03T16:32:08;8.70;67.30
8711;DHT22;4392;47.400;8.062;2023-04-03T16:34:34;8.40;66.30
8711;DHT22;4392;47.400;8.062;2023-04-03T16:37:04;8.00;65.60
8711;DHT22;4392;47.400;8.062;2023-04-03T16:39:30;7.60;67.10
8711;DHT22;4392;47.400;8.062;2023-04-03T16:41:57;7.90;67.80
8711;DHT22;4392;47.400;8.062;2023-04-03T16:44:23;8.40;68.30
8711;DHT22;4392;47.400;8.062;2023-04-03T16:46:49;8.40;66.10
8711;DHT22;4392;47.400;8.062;2023-04-03T16:49:18;8.40;66.80
8711;DHT22;4392;47.400;8.062;2023-04-03T16:51:43;8.50;65.80
8711;DHT22;4392;47.400;8.062;2023-04-03T16:54:12;8.70;65.90
8711;DHT22;4392;47.400;8.062;2023-04-03T16:56:44;8.70;65.20
8711;DHT22;4392;47.400;8.062;2023-04-03T16:59:10;8.60;65.70
8711;DHT22;4392;47.400;8.062;2023-04-03T17:01:36;8.70;65.80
8711;DHT22;4392;47.400;8.062;2023-04-03T17:04:01;8.60;65.90
8711;DHT22;4392;47.400;8.062;2023-04-03T17:06:36;8.70;65.80
8711;DHT22;4392;47.400;8.062;2023-04-03T17:09:01;8.50;64.70
8711;DHT22;4392;47.400;8.062;2023-04-03T17:11:31;8.60;66.10
8711;DHT22;4392;47.400;8.062;2023-04-03T17:13:57;8.70;65.60
8711;DHT22;4392;47.400;8.062;2023-04-03T17:16:23;8.60;64.60
8711;DHT22;4392;47.400;8.062;2023-04-03T17:18:55;8.70;65.80
8711;DHT22;4392;47.400;8.062;2023-04-03T17:21:21;8.50;65.20
8711;DHT22;4392;47.400;8.062;2023-04-03T17:23:51;8.60;65.20
8711;DHT22;4392;47.400;8.062;2023-04-03T17:26:23;8.40;65.90
8711;DHT22;4392;47.400;8.062;2023-04-03T17:28:49;8.60;65.90
8711;DHT22;4392;47.400;8.062;2023-04-03T17:31:15;8.30;64.90
8711;DHT22;4392;47.400;8.062;2023-04-03T17:33:50;8.20;65.30
8711;DHT22;4392;47.400;8.062;2023-04-03T17:36:16;8.20;66.10
8711;DHT22;4392;47.400;8.062;2023-04-03T17:38:44;8.40;65.70
8711;DHT22;4392;47.400;8.062;2023-04-03T17:41:11;8.50;65.10
8711;DHT22;4392;47.400;8.062;2023-04-03T17:43:38;8.40;65.10
8711;DHT22;4392;47.400;8.062;2023-04-03T17:46:24;8.50;65.90
8711;DHT22;4392;47.400;8.062;2023-04-03T17:48:51;8.10;65.40
8711;DHT22;4392;47.400;8.062;2023-04-03T17:51:19;7.80;67.30
8711;DHT22;4392;47.400;8.062;2023-04-03T17:53:49;7.40;67.90
8711;DHT22;4392;47.400;8.062;2023-04-03T17:56:24;7.60;67.80
8711;DHT22;4392;47.400;8.062;2023-04-03T17:58:53;7.80;68.10
8711;DHT22;4392;47.400;8.062;2023-04-03T18:03:51;8.10;68.50
8711;DHT22;4392;47.400;8.062;2023-04-03T18:06:19;8.00;67.60
8711;DHT22;4392;47.400;8.062;2023-04-03T18:08:54;7.60;67.60
8711;DHT22;4392;47.400;8.062;2023-04-03T18:11:29;7.60;68.60
8711;DHT22;4392;47.400;8.062;2023-04-03T18:13:59;7.80;69.60
8711;DHT22;4392;47.400;8.062;2023-04-03T18:16:27;7.90;68.20
8711;DHT22;4392;47.400;8.062;2023-04-03T18:18:53;8.10;68.40
8711;DHT22;4392;47.400;8.062;2023-04-03T18:21:19;8.20;68.30
8711;DHT22;4392;47.400;8.062;2023-04-03T18:23:49;8.00;68.20